createdAt,value
2023-03-24T00:01:07.534Z,12.70
2023-03-24T00:03:34.453Z,12.70
2023-03-24T00:06:05.018Z,12.70
2023-03-24T00:08:36.654Z,12.60
2023-03-24T00:11:09.083Z,12.60
2023-03-24T00:13:39.698Z,12.60
2023-03-24T00:16:13.339Z,12.60
2023-03-24T00:18:40.433Z,12.70
2023-03-24T00:21:10.790Z,12.60
2023-03-24T00:23:38.027Z,12.60
2023-03-24T00:26:15.232Z,12.70
2023-03-24T00:28:48.752Z,12.60
2023-03-24T00:31:17.525Z,12.60
2023-03-24T00:33:50.699Z,12.60
2023-03-24T00:36:20.984Z,12.70
2023-03-24T00:38:48.492Z,12.70
2023-03-24T00:41:20.093Z,12.70
2023-03-24T00:43:49.759Z,12.70
2023-03-24T00:46:30.220Z,12.60
2023-03-24T00:49:06.780Z,12.60
2023-03-24T00:51:38.342Z,12.60
2023-03-24T00:54:07.895Z,12.70
2023-03-24T00:56:37.911Z,12.60
2023-03-24T00:59:05.202Z,12.60
2023-03-24T01:01:35.032Z,12.80
2023-03-24T01:04:03.562Z,12.70
2023-03-24T01:06:30.584Z,12.70
2023-03-24T01:08:57.474Z,12.80
2023-03-24T01:11:26.884Z,12.80
2023-03-24T01:13:54.745Z,12.70
2023-03-24T01:16:25.791Z,12.80
2023-03-24T01:18:53.102Z,12.80
2023-03-24T01:21:20.035Z,12.80
2023-03-24T01:23:47.516Z,12.80
2023-03-24T01:26:14.630Z,12.80
2023-03-24T01:28:43.620Z,12.80
2023-03-24T01:31:11.885Z,12.80
2023-03-24T01:33:39.191Z,12.80
2023-03-24T01:36:07.531Z,12.80
2023-03-24T01:38:35.288Z,12.80
2023-03-24T01:41:03.243Z,12.80
2023-03-24T01:43:33.322Z,12.90
2023-03-24T01:46:25.826Z,12.90
2023-03-24T01:49:02.508Z,12.90
2023-03-24T01:51:42.807Z,12.80
2023-03-24T01:55:08.537Z,13.00
2023-03-24T01:57:48.253Z,13.00
2023-03-24T02:00:18.967Z,12.90
2023-03-24T02:03:20.805Z,12.90
2023-03-24T02:05:57.577Z,12.90
2023-03-24T02:08:57.156Z,13.00
2023-03-24T02:11:30.648Z,12.90
2023-03-24T02:14:02.288Z,13.00
2023-03-24T02:17:18.273Z,13.10
2023-03-24T02:20:32.284Z,13.20
2023-03-24T02:23:57.761Z,13.10
2023-03-24T02:27:03.972Z,13.20
2023-03-24T02:30:11.193Z,13.40
2023-03-24T02:33:17.244Z,13.50
2023-03-24T02:36:28.391Z,13.30
2023-03-24T02:39:33.770Z,13.30
2023-03-24T02:42:51.090Z,13.30
2023-03-24T02:46:13.924Z,13.30
2023-03-24T02:49:10.396Z,13.10
2023-03-24T02:52:25.718Z,13.10
2023-03-24T02:55:19.207Z,13.20
2023-03-24T02:57:57.209Z,13.20
2023-03-24T03:00:59.255Z,13.00
2023-03-24T03:03:54.227Z,12.80
2023-03-24T03:06:32.693Z,13.10
2023-03-24T03:09:09.469Z,12.90
2023-03-24T03:11:39.436Z,12.90
2023-03-24T03:14:17.985Z,12.80
2023-03-24T03:17:02.453Z,12.80
2023-03-24T03:19:39.904Z,12.70
2023-03-24T03:22:33.222Z,12.60
2023-03-24T03:25:04.275Z,12.70
2023-03-24T03:27:38.968Z,12.70
2023-03-24T03:30:13.291Z,12.80
2023-03-24T03:32:54.067Z,12.60
2023-03-24T03:35:37.113Z,12.50
2023-03-24T03:38:34.756Z,12.70
2023-03-24T03:41:05.125Z,12.60
2023-03-24T03:43:35.555Z,12.60
2023-03-24T03:46:06.343Z,12.70
2023-03-24T03:48:37.750Z,12.70
2023-03-24T03:53:52.379Z,12.60
2023-03-24T03:56:24.082Z,12.60
2023-03-24T03:59:23.932Z,12.50
2023-03-24T04:01:51.212Z,12.30
2023-03-24T04:05:05.849Z,12.30
2023-03-24T04:08:18.422Z,12.40
2023-03-24T04:11:20.266Z,12.70
2023-03-24T04:14:25.326Z,12.80
2023-03-24T04:17:32.126Z,12.80
2023-03-24T04:20:14.873Z,12.60
2023-03-24T04:23:05.027Z,12.70
2023-03-24T04:26:06.113Z,12.50
2023-03-24T04:28:58.107Z,12.30
2023-03-24T04:31:39.900Z,12.30
2023-03-24T04:34:41.025Z,12.50
2023-03-24T04:37:27.538Z,12.30
2023-03-24T04:40:07.406Z,12.20
2023-03-24T04:42:52.480Z,12.00
2023-03-24T04:45:26.072Z,12.00
2023-03-24T04:48:20.197Z,12.10
2023-03-24T04:51:11.056Z,12.00
2023-03-24T04:53:58.314Z,12.20
2023-03-24T04:56:38.696Z,12.20
2023-03-24T04:59:26.102Z,12.10
2023-03-24T05:01:53.451Z,12.00
2023-03-24T05:04:30.452Z,12.30
2023-03-24T05:07:07.620Z,12.30
2023-03-24T05:09:34.477Z,12.20
2023-03-24T05:12:02.335Z,12.10
2023-03-24T05:14:33.899Z,12.00
2023-03-24T05:17:01.169Z,12.00
2023-03-24T05:19:28.939Z,12.00
2023-03-24T05:21:56.237Z,12.00
2023-03-24T05:24:23.641Z,11.90
2023-03-24T05:26:50.578Z,11.80
2023-03-24T05:29:19.776Z,11.90
2023-03-24T05:31:46.957Z,11.90
2023-03-24T05:34:18.320Z,11.90
2023-03-24T05:37:12.968Z,11.80
2023-03-24T05:39:40.317Z,11.70
2023-03-24T05:42:12.283Z,12.00
2023-03-24T05:44:39.163Z,11.80
2023-03-24T05:47:16.217Z,11.80
2023-03-24T05:49:43.833Z,11.90
2023-03-24T05:52:14.825Z,11.80
2023-03-24T05:54:43.295Z,11.70
2023-03-24T05:57:18.722Z,11.70
2023-03-24T06:00:10.424Z,11.60
2023-03-24T06:02:59.915Z,11.60
2023-03-24T06:05:45.912Z,11.70
2023-03-24T06:08:13.384Z,11.50
2023-03-24T06:10:41.094Z,11.40
2023-03-24T06:13:09.312Z,11.60
2023-03-24T06:15:39.592Z,11.60
2023-03-24T06:18:27.798Z,11.50
2023-03-24T06:20:57.078Z,11.50
2023-03-24T06:23:29.148Z,11.70
2023-03-24T06:26:11.544Z,11.60
2023-03-24T06:28:51.869Z,11.60
2023-03-24T06:31:21.531Z,11.50
2023-03-24T06:33:52.328Z,11.50
2023-03-24T06:36:19.727Z,11.60
2023-03-24T06:38:47.000Z,11.60
2023-03-24T06:41:18.097Z,11.50
2023-03-24T06:43:46.604Z,11.60
2023-03-24T06:46:13.743Z,11.50
2023-03-24T06:48:43.829Z,11.40
2023-03-24T06:51:10.768Z,11.60
2023-03-24T06:53:41.122Z,11.60
2023-03-24T06:56:08.314Z,11.90
2023-03-24T06:58:40.921Z,11.90
2023-03-24T07:01:11.408Z,12.20
2023-03-24T07:03:54.234Z,12.10
2023-03-24T07:06:50.594Z,12.10
2023-03-24T07:09:27.266Z,12.30
2023-03-24T07:11:54.171Z,12.40
2023-03-24T07:14:21.936Z,12.20
2023-03-24T07:16:49.553Z,12.10
2023-03-24T07:19:48.782Z,12.30
2023-03-24T07:22:36.817Z,12.40
2023-03-24T07:25:22.191Z,12.40
2023-03-24T07:28:01.901Z,12.50
2023-03-24T07:30:39.938Z,12.70
2023-03-24T07:33:10.845Z,12.50
2023-03-24T07:35:39.332Z,12.80
2023-03-24T07:38:07.854Z,13.00
2023-03-24T07:40:38.070Z,13.00
2023-03-24T07:43:06.542Z,13.10
2023-03-24T07:45:59.469Z,13.00
2023-03-24T07:48:28.869Z,13.00
2023-03-24T07:50:55.862Z,13.00
2023-03-24T07:53:48.882Z,13.20
2023-03-24T07:56:25.477Z,13.30
2023-03-24T07:58:57.298Z,13.40
2023-03-24T08:01:31.927Z,13.60
2023-03-24T08:04:03.402Z,13.50
2023-03-24T08:07:02.944Z,13.50
2023-03-24T08:09:30.001Z,13.60
2023-03-24T08:11:57.887Z,13.80
2023-03-24T08:14:26.372Z,13.70
2023-03-24T08:16:53.250Z,13.70
2023-03-24T08:19:20.034Z,13.90
2023-03-24T08:21:46.842Z,13.90
2023-03-24T08:24:13.773Z,14.00
2023-03-24T08:26:42.676Z,13.90
2023-03-24T08:29:09.497Z,14.00
2023-03-24T08:31:37.674Z,14.00
2023-03-24T08:34:06.551Z,14.10
2023-03-24T08:36:33.560Z,14.00
2023-03-24T08:39:01.356Z,14.00
2023-03-24T08:41:34.776Z,14.00
2023-03-24T08:44:07.134Z,14.20
2023-03-24T08:46:34.891Z,14.20
2023-03-24T08:49:02.813Z,14.10
2023-03-24T08:51:31.168Z,14.30
2023-03-24T08:53:58.339Z,14.30
2023-03-24T08:56:25.913Z,14.50
2023-03-24T08:58:53.735Z,14.70
2023-03-24T09:01:22.750Z,14.60
2023-03-24T09:03:50.411Z,14.30
2023-03-24T09:06:17.550Z,14.50
2023-03-24T09:08:46.025Z,14.30
2023-03-24T09:11:20.235Z,14.40
2023-03-24T09:13:48.944Z,14.10
2023-03-24T09:16:17.765Z,14.30
2023-03-24T09:18:45.519Z,14.50
2023-03-24T09:21:13.581Z,14.60
2023-03-24T09:23:40.748Z,14.70
2023-03-24T09:26:08.064Z,14.70
2023-03-24T09:28:35.339Z,14.70
2023-03-24T09:31:06.053Z,14.50
2023-03-24T09:33:34.782Z,14.30
2023-03-24T09:36:04.313Z,14.50
2023-03-24T09:38:31.336Z,14.60
2023-03-24T09:41:03.516Z,14.80
2023-03-24T09:43:55.637Z,14.80
2023-03-24T09:46:48.898Z,14.80
2023-03-24T09:49:25.160Z,14.60
2023-03-24T09:52:03.274Z,14.90
2023-03-24T09:54:57.453Z,14.90
2023-03-24T09:57:33.874Z,14.80
2023-03-24T10:00:00.797Z,15.20
2023-03-24T10:02:30.837Z,15.20
2023-03-24T10:04:57.713Z,15.40
2023-03-24T10:07:46.403Z,15.30
2023-03-24T10:10:42.205Z,15.60
2023-03-24T10:13:25.120Z,15.90
2023-03-24T10:16:27.643Z,15.90
2023-03-24T10:19:47.473Z,16.10
2023-03-24T10:22:48.355Z,16.40
2023-03-24T10:25:26.595Z,16.40
2023-03-24T10:28:16.946Z,16.40
2023-03-24T10:30:48.122Z,16.50
2023-03-24T10:33:15.910Z,16.60
2023-03-24T10:36:01.861Z,16.30
2023-03-24T10:38:28.901Z,16.20
2023-03-24T10:40:55.972Z,16.40
2023-03-24T10:43:28.121Z,16.70
2023-03-24T10:45:57.382Z,16.70
2023-03-24T10:48:52.571Z,16.70
2023-03-24T10:51:34.775Z,16.70
2023-03-24T10:54:20.569Z,16.70
2023-03-24T10:57:02.546Z,16.70
2023-03-24T10:59:47.415Z,16.80
2023-03-24T11:02:33.776Z,16.70
2023-03-24T11:05:20.361Z,16.90
2023-03-24T11:07:50.498Z,16.80
2023-03-24T11:10:25.504Z,16.40
2023-03-24T11:12:55.535Z,16.20
2023-03-24T11:15:37.220Z,15.80
2023-03-24T11:18:15.504Z,15.60
2023-03-24T11:20:53.419Z,15.40
2023-03-24T11:23:30.204Z,15.50
2023-03-24T11:26:17.224Z,15.60
2023-03-24T11:28:48.625Z,15.60
2023-03-24T11:31:30.419Z,15.50
2023-03-24T11:34:08.436Z,15.70
2023-03-24T11:36:45.297Z,15.80
2023-03-24T11:39:15.929Z,15.70
2023-03-24T11:41:53.398Z,15.80
2023-03-24T11:44:25.585Z,16.10
2023-03-24T11:47:00.492Z,15.80
2023-03-24T11:49:33.032Z,15.70
2023-03-24T11:52:00.843Z,15.40
2023-03-24T11:54:35.329Z,15.20
2023-03-24T11:57:13.530Z,15.30
2023-03-24T11:59:58.637Z,15.40
2023-03-24T12:02:54.408Z,15.40
2023-03-24T12:05:44.777Z,15.60
2023-03-24T12:08:22.105Z,15.70
2023-03-24T12:11:18.113Z,15.80
2023-03-24T12:13:50.472Z,15.70
2023-03-24T12:16:26.298Z,15.70
2023-03-24T12:19:32.567Z,15.80
2023-03-24T12:22:38.535Z,15.70
2023-03-24T12:25:29.843Z,15.90
2023-03-24T12:28:11.491Z,15.60
2023-03-24T12:31:27.059Z,15.40
2023-03-24T12:34:39.069Z,15.80
2023-03-24T12:37:47.867Z,15.60
2023-03-24T12:40:38.894Z,15.20
2023-03-24T12:43:41.070Z,15.30
2023-03-24T12:47:04.066Z,15.10
2023-03-24T12:49:41.014Z,15.40
2023-03-24T12:52:30.921Z,15.90
2023-03-24T12:55:06.464Z,16.10
2023-03-24T12:58:00.692Z,16.30
2023-03-24T13:00:36.230Z,16.20
2023-03-24T13:03:12.920Z,16.00
2023-03-24T13:05:53.357Z,15.90
2023-03-24T13:08:29.274Z,15.80
2023-03-24T13:11:07.948Z,15.70
2023-03-24T13:13:44.190Z,16.00
2023-03-24T13:16:22.022Z,16.00
2023-03-24T13:18:59.834Z,16.10
2023-03-24T13:21:28.627Z,16.20
2023-03-24T13:24:08.741Z,16.20
2023-03-24T13:26:50.121Z,16.30
2023-03-24T13:29:38.497Z,16.10
2023-03-24T13:32:21.432Z,16.00
2023-03-24T13:35:12.340Z,15.90
2023-03-24T13:37:51.888Z,15.80
2023-03-24T13:40:27.687Z,15.80
2023-03-24T13:43:06.782Z,15.90
2023-03-24T13:45:52.566Z,15.70
2023-03-24T13:48:37.590Z,15.80
2023-03-24T13:51:34.976Z,15.60
2023-03-24T13:54:16.393Z,15.30
2023-03-24T13:57:07.487Z,15.20
2023-03-24T14:00:17.712Z,15.30
2023-03-24T14:02:56.411Z,15.00
2023-03-24T14:05:23.890Z,14.90
2023-03-24T14:08:00.886Z,14.90
2023-03-24T14:10:38.934Z,15.10
2023-03-24T14:13:20.856Z,14.60
2023-03-24T14:15:58.095Z,14.90
2023-03-24T14:18:25.621Z,14.60
2023-03-24T14:21:08.638Z,14.70
2023-03-24T14:23:45.970Z,14.70
2023-03-24T14:26:34.286Z,14.80
2023-03-24T14:29:01.505Z,14.70
2023-03-24T14:31:38.804Z,14.70
2023-03-24T14:34:25.355Z,14.70
2023-03-24T14:37:03.586Z,14.70
2023-03-24T14:39:41.602Z,14.70
2023-03-24T14:42:27.155Z,14.80
2023-03-24T14:44:57.161Z,14.80
2023-03-24T14:47:33.658Z,14.70
2023-03-24T14:50:13.074Z,14.60
2023-03-24T14:52:54.833Z,14.60
2023-03-24T14:55:22.806Z,14.80
2023-03-24T14:58:12.948Z,14.80
2023-03-24T15:01:04.368Z,14.80
2023-03-24T15:04:05.028Z,14.80
2023-03-24T15:06:33.171Z,14.70
2023-03-24T15:09:07.301Z,14.80
2023-03-24T15:11:38.432Z,14.70
2023-03-24T15:14:07.085Z,14.70
2023-03-24T15:16:37.873Z,15.00
2023-03-24T15:19:22.526Z,14.90
2023-03-24T15:22:02.972Z,14.80
2023-03-24T15:24:36.472Z,14.70
2023-03-24T15:27:06.406Z,14.80
2023-03-24T15:29:39.802Z,14.90
2023-03-24T15:32:12.450Z,15.00
2023-03-24T15:34:50.606Z,15.00
2023-03-24T15:37:35.442Z,14.90
2023-03-24T15:40:15.199Z,14.90
2023-03-24T15:42:45.933Z,15.10
2023-03-24T15:45:43.652Z,14.80
2023-03-24T15:48:18.448Z,15.10
2023-03-24T15:51:06.779Z,15.00
2023-03-24T15:53:33.680Z,15.00
2023-03-24T15:56:20.502Z,15.20
2023-03-24T15:58:54.915Z,15.00
2023-03-24T16:01:36.470Z,14.90
2023-03-24T16:04:14.260Z,15.00
2023-03-24T16:06:48.494Z,15.00
2023-03-24T16:09:21.631Z,15.00
2023-03-24T16:11:49.620Z,15.10
2023-03-24T16:14:32.343Z,15.00
2023-03-24T16:17:05.074Z,15.20
2023-03-24T16:19:32.778Z,15.00
2023-03-24T16:21:59.885Z,14.80
2023-03-24T16:24:26.762Z,14.90
2023-03-24T16:26:53.602Z,14.70
2023-03-24T16:29:24.653Z,14.70
2023-03-24T16:31:56.359Z,14.60
2023-03-24T16:34:24.382Z,14.40
2023-03-24T16:36:54.466Z,14.40
2023-03-24T16:39:27.712Z,14.40
2023-03-24T16:41:55.382Z,14.20
2023-03-24T16:44:23.210Z,14.40
2023-03-24T16:46:53.737Z,14.20
2023-03-24T16:49:23.293Z,14.10
2023-03-24T16:51:50.824Z,13.90
2023-03-24T16:54:17.744Z,13.90
2023-03-24T16:56:44.690Z,13.90
2023-03-24T16:59:14.800Z,14.10
2023-03-24T17:01:45.727Z,13.90
2023-03-24T17:04:19.181Z,14.00
2023-03-24T17:06:52.663Z,14.00
2023-03-24T17:09:20.698Z,13.80
2023-03-24T17:11:52.966Z,13.80
2023-03-24T17:14:20.470Z,13.80
2023-03-24T17:16:49.115Z,13.80
2023-03-24T17:19:21.289Z,13.70
2023-03-24T17:22:08.530Z,13.60
2023-03-24T17:24:36.697Z,13.60
2023-03-24T17:27:09.910Z,13.30
2023-03-24T17:29:36.739Z,13.20
2023-03-24T17:32:03.763Z,13.20
2023-03-24T17:34:30.598Z,13.20
2023-03-24T17:36:57.569Z,13.10
2023-03-24T17:39:24.399Z,13.10
2023-03-24T17:41:51.254Z,13.00
2023-03-24T17:44:18.112Z,13.10
2023-03-24T17:46:44.995Z,13.20
2023-03-24T17:49:11.894Z,13.10
2023-03-24T17:51:38.850Z,13.00
2023-03-24T17:54:06.245Z,13.00
2023-03-24T17:56:33.141Z,12.90
2023-03-24T17:58:59.992Z,12.90
2023-03-24T18:01:29.437Z,12.90
2023-03-24T18:03:57.774Z,12.90
2023-03-24T18:06:24.896Z,13.00
2023-03-24T18:08:52.299Z,12.90
2023-03-24T18:11:19.641Z,12.90
2023-03-24T18:13:46.728Z,12.80
2023-03-24T18:16:21.546Z,12.70
2023-03-24T18:18:50.901Z,12.70
2023-03-24T18:21:19.025Z,12.60
2023-03-24T18:23:46.508Z,12.60
2023-03-24T18:26:15.672Z,12.60
2023-03-24T18:28:45.329Z,12.50
2023-03-24T18:31:21.380Z,12.50
2023-03-24T18:33:50.626Z,12.40
2023-03-24T18:36:26.944Z,12.40
2023-03-24T18:39:01.084Z,12.50
2023-03-24T18:41:29.856Z,12.40
2023-03-24T18:43:59.143Z,12.30
2023-03-24T18:46:27.352Z,12.20
2023-03-24T18:48:55.241Z,12.30
2023-03-24T18:51:27.554Z,12.20
2023-03-24T18:53:54.759Z,12.20
2023-03-24T18:56:23.364Z,12.20
2023-03-24T18:58:51.611Z,12.20
2023-03-24T19:01:22.627Z,12.20
2023-03-24T19:03:52.199Z,12.20
2023-03-24T19:06:20.279Z,12.20
2023-03-24T19:08:52.930Z,12.40
2023-03-24T19:11:20.037Z,12.30
2023-03-24T19:13:49.714Z,12.30
2023-03-24T19:16:19.148Z,12.20
2023-03-24T19:18:48.171Z,12.20
2023-03-24T19:21:15.414Z,12.20
2023-03-24T19:23:44.274Z,12.10
2023-03-24T19:26:11.094Z,12.20
2023-03-24T19:28:37.926Z,12.30
2023-03-24T19:31:12.400Z,12.10
2023-03-24T19:33:39.344Z,12.00
2023-03-24T19:36:08.789Z,12.00
2023-03-24T19:38:38.210Z,12.00
2023-03-24T19:41:09.057Z,12.20
2023-03-24T19:43:36.766Z,12.10
2023-03-24T19:46:06.056Z,12.00
2023-03-24T19:48:34.186Z,12.20
2023-03-24T19:51:01.465Z,12.20
2023-03-24T19:53:28.284Z,12.00
2023-03-24T19:55:59.963Z,12.00
2023-03-24T19:58:26.895Z,12.10
2023-03-24T20:00:53.709Z,12.20
2023-03-24T20:03:20.906Z,12.10
2023-03-24T20:05:48.891Z,12.10
2023-03-24T20:08:16.280Z,12.00
2023-03-24T20:10:43.034Z,12.10
2023-03-24T20:13:09.956Z,11.90
2023-03-24T20:15:37.212Z,12.00
2023-03-24T20:18:04.384Z,12.00
2023-03-24T20:20:31.589Z,11.90
2023-03-24T20:22:58.407Z,12.00
2023-03-24T20:25:25.305Z,12.00
2023-03-24T20:27:52.158Z,11.90
2023-03-24T20:30:20.573Z,11.90
2023-03-24T20:32:48.153Z,11.90
2023-03-24T20:35:15.873Z,11.90
2023-03-24T20:37:43.042Z,12.00
2023-03-24T20:40:10.552Z,11.80
2023-03-24T20:42:38.513Z,12.20
2023-03-24T20:45:08.106Z,12.10
2023-03-24T20:47:36.507Z,12.00
2023-03-24T20:50:06.035Z,12.00
2023-03-24T20:52:33.441Z,12.20
2023-03-24T20:55:01.594Z,12.10
2023-03-24T20:57:30.099Z,12.10
2023-03-24T20:59:57.018Z,12.00
2023-03-24T21:02:25.193Z,11.90
2023-03-24T21:04:52.243Z,11.90
2023-03-24T21:07:19.067Z,12.10
2023-03-24T21:09:46.212Z,12.20
2023-03-24T21:12:12.970Z,12.10
2023-03-24T21:14:41.319Z,12.10
2023-03-24T21:17:08.198Z,12.10
2023-03-24T21:19:37.126Z,12.10
2023-03-24T21:22:03.948Z,12.10
2023-03-24T21:24:31.193Z,11.80
2023-03-24T21:26:57.996Z,11.80
2023-03-24T21:29:26.442Z,12.00
2023-03-24T21:31:53.419Z,12.20
2023-03-24T21:34:20.278Z,12.10
2023-03-24T21:36:49.269Z,12.30
2023-03-24T21:39:16.531Z,12.20
2023-03-24T21:41:43.316Z,12.20
2023-03-24T21:44:10.396Z,12.30
2023-03-24T21:46:37.424Z,12.30
2023-03-24T21:49:05.509Z,12.20
2023-03-24T21:51:34.422Z,12.20
2023-03-24T21:54:06.089Z,12.10
2023-03-24T21:56:34.601Z,12.00
2023-03-24T21:59:01.966Z,11.80
2023-03-24T22:01:29.147Z,11.80
2023-03-24T22:03:58.472Z,11.90
2023-03-24T22:06:28.982Z,12.10
2023-03-24T22:08:58.257Z,12.00
2023-03-24T22:11:25.712Z,11.90
2023-03-24T22:13:52.829Z,11.80
2023-03-24T22:16:19.725Z,12.10
2023-03-24T22:18:47.385Z,12.00
2023-03-24T22:21:14.489Z,11.90
2023-03-24T22:23:42.628Z,11.70
2023-03-24T22:26:16.726Z,11.80
2023-03-24T22:28:44.481Z,12.00
2023-03-24T22:31:16.025Z,11.80
2023-03-24T22:33:44.393Z,11.80
2023-03-24T22:36:11.972Z,11.90
2023-03-24T22:38:38.924Z,11.80
2023-03-24T22:41:10.055Z,11.90
2023-03-24T22:43:39.361Z,11.80
2023-03-24T22:46:06.970Z,11.90
2023-03-24T22:48:34.280Z,12.10
2023-03-24T22:51:01.062Z,12.00
2023-03-24T22:53:27.953Z,12.20
2023-03-24T22:55:54.761Z,12.20
2023-03-24T22:58:22.960Z,12.40
2023-03-24T23:00:54.828Z,12.10
2023-03-24T23:03:22.111Z,12.10
2023-03-24T23:05:49.106Z,11.90
2023-03-24T23:08:16.403Z,12.00
2023-03-24T23:10:44.809Z,11.90
2023-03-24T23:13:13.151Z,12.10
2023-03-24T23:15:42.288Z,12.30
2023-03-24T23:18:09.284Z,12.10
2023-03-24T23:20:36.388Z,12.00
2023-03-24T23:23:05.901Z,12.10
2023-03-24T23:25:39.933Z,12.00
2023-03-24T23:28:07.013Z,12.10
2023-03-24T23:30:33.826Z,12.00
2023-03-24T23:33:01.930Z,12.10
2023-03-24T23:35:28.729Z,12.20
2023-03-24T23:37:55.467Z,11.90
2023-03-24T23:40:22.575Z,11.90
2023-03-24T23:42:50.516Z,12.10
2023-03-24T23:45:20.674Z,12.00
2023-03-24T23:47:51.131Z,11.80
2023-03-24T23:50:20.991Z,11.70
2023-03-24T23:52:48.457Z,11.90
2023-03-24T23:55:17.855Z,12.00
2023-03-24T23:57:45.318Z,11.80
